createdAt,value
2019-06-07T03:50:33.528Z,10.10
2019-06-07T03:53:03.632Z,11.22
2019-06-07T03:55:38.554Z,11.18
2019-06-07T04:00:43.158Z,10.05
2019-06-07T04:03:32.745Z,9.70
2019-06-07T04:05:47.956Z,9.48
2019-06-07T04:08:19.301Z,10.28
2019-06-07T04:10:59.577Z,11.05
2019-06-07T04:13:23.352Z,9.78
2019-06-07T04:15:54.527Z,11.05
2019-06-07T04:18:28.590Z,10.35
2019-06-07T04:21:01.686Z,10.03
2019-06-07T04:23:37.988Z,12.43
2019-06-07T04:26:07.867Z,11.00
2019-06-07T04:29:31.077Z,11.35
2019-06-07T04:31:16.153Z,11.83
2019-06-07T04:33:51.051Z,11.50
2019-06-07T04:36:45.623Z,12.25
2019-06-07T04:42:35.029Z,12.85
2019-06-07T04:45:29.202Z,13.00
2019-06-07T04:47:45.271Z,12.65
2019-06-07T04:50:19.458Z,11.95
2019-06-07T04:52:53.655Z,11.78
2019-06-07T04:55:29.094Z,11.25
2019-06-07T04:58:04.807Z,9.25
2019-06-07T05:00:54.292Z,10.53
2019-06-07T05:03:18.516Z,10.20
2019-06-07T05:05:54.891Z,10.43
2019-06-07T05:08:31.540Z,9.13
2019-06-07T05:11:06.935Z,10.48
2019-06-07T05:13:43.809Z,9.08
2019-06-07T05:16:19.974Z,8.43
2019-06-07T05:18:54.361Z,8.65
2019-06-07T05:21:51.517Z,8.80
2019-06-07T05:24:10.102Z,8.80
2019-06-07T05:26:55.920Z,8.50
2019-06-07T05:29:30.787Z,9.85
2019-06-07T05:32:09.215Z,10.23
2019-06-07T06:07:56.949Z,8.83
2019-06-07T06:10:30.359Z,8.18
2019-06-07T06:13:05.085Z,8.23
2019-06-07T06:15:50.817Z,7.55
2019-06-07T06:18:15.351Z,5.87
2019-06-07T06:21:12.774Z,5.58
2019-06-07T06:23:25.919Z,5.12
2019-06-07T06:26:03.469Z,4.45
2019-06-07T06:28:45.388Z,4.45
2019-06-07T06:31:23.240Z,4.42
2019-06-07T06:33:57.529Z,4.58
2019-06-07T06:36:32.497Z,4.20
2019-06-07T06:39:10.872Z,4.15
2019-06-07T06:41:56.825Z,4.17
2019-06-07T06:44:22.524Z,4.45
2019-06-07T06:46:58.288Z,4.10
2019-06-07T06:49:32.536Z,4.25
2019-06-07T06:52:08.027Z,4.47
2019-06-07T06:54:54.256Z,4.53
2019-06-07T06:57:21.873Z,4.58
2019-06-07T06:59:55.867Z,5.25
2019-06-07T07:02:31.572Z,5.03
2019-06-07T07:05:08.943Z,5.85
2019-06-07T07:07:45.448Z,5.17
2019-06-07T07:10:24.994Z,5.92
2019-06-07T07:13:00.366Z,6.08
2019-06-07T07:15:33.401Z,5.45
2019-06-07T07:21:26.283Z,6.12
2019-06-07T07:24:20.266Z,6.75
2019-06-07T07:26:53.931Z,8.93
2019-06-07T07:29:26.752Z,10.93
2019-06-07T07:32:01.686Z,9.33
2019-06-07T07:34:38.253Z,9.18
2019-06-07T07:37:33.278Z,8.80
2019-06-07T07:40:54.745Z,9.18
2019-06-07T07:42:45.195Z,9.08
2019-06-07T07:45:20.391Z,9.10
2019-06-07T07:48:08.792Z,7.92
2019-06-07T07:50:29.747Z,8.10
2019-06-07T07:53:03.475Z,7.42
2019-06-07T07:55:38.009Z,7.62
2019-06-07T07:58:15.631Z,6.87
2019-06-07T08:01:00.145Z,6.90
2019-06-07T08:03:26.931Z,6.92
2019-06-07T08:06:00.406Z,6.35
2019-06-07T08:08:33.614Z,6.17
2019-06-07T08:11:07.657Z,5.42
2019-06-07T08:13:43.993Z,5.25
2019-06-07T08:16:29.647Z,4.70
2019-06-07T08:19:04.559Z,3.87
2019-06-07T08:21:38.894Z,3.75
2019-06-07T08:24:14.410Z,3.95
2019-06-07T08:27:13.013Z,3.70
2019-06-07T08:29:26.076Z,3.72
2019-06-07T08:32:00.935Z,3.62
2019-06-07T08:34:35.645Z,3.20
2019-06-07T08:37:10.042Z,3.80
2019-06-07T08:39:43.696Z,4.12
2019-06-07T08:42:22.044Z,3.75
2019-06-07T08:44:54.296Z,4.00
2019-06-07T08:47:29.181Z,3.83
2019-06-07T08:50:07.766Z,4.20
2019-06-07T08:52:39.219Z,4.30
2019-06-07T08:55:15.388Z,4.00
2019-06-07T08:57:49.077Z,3.67
2019-06-07T09:03:06.471Z,4.37
2019-06-07T09:05:37.793Z,4.22
2019-06-07T09:08:29.207Z,4.22
2019-06-07T09:10:48.662Z,4.55
2019-06-07T09:13:22.330Z,4.20
2019-06-07T09:16:04.378Z,3.35
2019-06-07T09:18:43.033Z,3.70
2019-06-07T09:21:09.949Z,3.80
2019-06-07T09:23:44.212Z,3.47
2019-06-07T09:26:19.157Z,3.60
2019-06-07T09:28:57.640Z,3.72
2019-06-07T09:31:51.137Z,3.50
2019-06-07T09:34:13.782Z,3.33
2019-06-07T09:36:42.747Z,3.40
2019-06-07T09:39:14.928Z,3.40
2019-06-07T09:41:49.887Z,2.85
2019-06-07T09:44:25.695Z,2.58
2019-06-07T09:47:14.221Z,3.30
2019-06-07T09:49:32.627Z,3.52
2019-06-07T09:52:06.827Z,3.47
2019-06-07T09:57:16.409Z,3.25
2019-06-07T09:59:40.216Z,3.02
2019-06-07T10:02:13.790Z,3.30
2019-06-07T10:04:44.575Z,3.37
2019-06-07T10:07:30.729Z,3.42
2019-06-07T10:12:21.522Z,3.25
2019-06-07T10:14:54.419Z,3.30
2019-06-07T10:17:28.590Z,2.92
2019-06-07T10:20:03.914Z,3.00
2019-06-07T10:22:36.445Z,3.50
2019-06-07T10:25:10.618Z,3.42
2019-06-07T10:27:41.970Z,2.90
2019-06-07T10:30:13.335Z,2.83
2019-06-07T10:32:45.315Z,2.95
2019-06-07T10:35:17.236Z,3.60
2019-06-07T10:37:48.547Z,4.00
2019-06-07T10:40:20.525Z,2.90
2019-06-07T10:42:52.726Z,4.00
2019-06-07T10:45:24.955Z,3.27
2019-06-07T10:47:57.324Z,3.40
2019-06-07T10:50:28.616Z,3.10
2019-06-07T10:52:59.925Z,3.17
2019-06-07T10:55:31.288Z,3.22
2019-06-07T10:58:03.310Z,3.10
2019-06-07T11:00:34.820Z,2.98
2019-06-07T11:03:07.857Z,3.30
2019-06-07T11:05:39.865Z,3.27
2019-06-07T11:08:14.563Z,3.60
2019-06-07T11:10:47.867Z,3.10
2019-06-07T11:13:19.134Z,3.30
2019-06-07T11:17:13.286Z,3.12
2019-06-07T11:19:44.945Z,2.77
2019-06-07T11:22:16.446Z,2.90
2019-06-07T11:24:47.978Z,3.10
2019-06-07T11:27:19.858Z,2.87
2019-06-07T11:29:53.564Z,2.87
2019-06-07T11:32:25.602Z,3.40
2019-06-07T11:34:56.776Z,2.58
2019-06-07T11:37:27.927Z,3.12
2019-06-07T11:39:59.059Z,2.60
2019-06-07T11:42:30.344Z,2.62
2019-06-07T11:45:01.589Z,2.67
2019-06-07T11:47:32.826Z,2.47
2019-06-07T11:50:07.254Z,2.90
2019-06-07T11:52:39.332Z,2.80
2019-06-07T11:55:11.547Z,2.77
2019-06-07T11:57:43.224Z,2.60
2019-06-07T12:00:18.389Z,2.72
2019-06-07T12:02:49.971Z,2.92
2019-06-07T12:05:21.251Z,2.37
2019-06-07T12:07:52.401Z,2.90
2019-06-07T12:10:25.151Z,2.83
2019-06-07T12:12:56.450Z,3.10
2019-06-07T12:15:27.845Z,3.05
2019-06-07T12:17:59.313Z,3.12
2019-06-07T12:20:30.921Z,2.52
2019-06-07T12:23:02.204Z,3.22
2019-06-07T12:25:33.393Z,3.35
2019-06-07T12:28:04.786Z,4.25
2019-06-07T12:30:35.935Z,3.33
2019-06-07T12:33:07.118Z,3.50
2019-06-07T12:35:38.320Z,3.10
2019-06-07T12:38:09.497Z,3.20
2019-06-07T12:40:40.691Z,2.83
2019-06-07T12:43:12.481Z,2.85
2019-06-07T12:45:45.543Z,3.15
2019-06-07T12:48:20.779Z,3.00
2019-06-07T12:50:49.561Z,3.20
2019-06-07T12:53:25.838Z,3.22
2019-06-07T12:55:53.762Z,2.70
2019-06-07T12:58:32.608Z,3.10
2019-06-07T13:00:59.816Z,2.90
2019-06-07T13:03:31.036Z,2.85
2019-06-07T13:06:02.269Z,3.20
2019-06-07T13:08:34.438Z,3.70
2019-06-07T13:11:15.896Z,3.27
2019-06-07T13:13:38.740Z,3.50
2019-06-07T13:16:11.041Z,2.98
2019-06-07T13:18:42.717Z,2.75
2019-06-07T13:21:14.001Z,3.42
2019-06-07T13:23:45.213Z,2.72
2019-06-07T13:26:17.348Z,3.67
2019-06-07T13:28:49.790Z,2.85
2019-06-07T13:31:21.184Z,2.90
2019-06-07T13:33:52.489Z,2.80
2019-06-07T13:36:24.716Z,2.60
2019-06-07T13:38:55.975Z,2.98
2019-06-07T13:41:40.453Z,2.95
2019-06-07T13:44:02.234Z,2.65
2019-06-07T13:46:33.840Z,2.65
2019-06-07T13:49:05.993Z,3.35
2019-06-07T13:51:37.228Z,2.47
2019-06-07T13:54:08.483Z,2.42
2019-06-07T13:57:00.906Z,2.30
2019-06-07T13:59:13.324Z,2.87
2019-06-07T14:01:45.080Z,3.12
2019-06-07T14:04:16.276Z,3.08
2019-06-07T14:06:49.079Z,2.75
2019-06-07T14:09:21.146Z,2.62
2019-06-07T14:11:52.753Z,2.95
2019-06-07T14:14:24.736Z,2.67
2019-06-07T14:16:56.930Z,3.00
2019-06-07T14:19:28.764Z,2.85
2019-06-07T14:22:00.369Z,2.80
2019-06-07T14:24:31.663Z,3.12
2019-06-07T14:27:08.794Z,3.45
2019-06-07T14:29:40.490Z,2.75
2019-06-07T14:32:11.689Z,3.40
2019-06-07T14:34:42.850Z,2.60
2019-06-07T14:37:14.180Z,3.30
2019-06-07T14:39:45.496Z,2.55
2019-06-07T14:42:18.362Z,2.98
2019-06-07T14:44:49.777Z,2.85
2019-06-07T14:47:21.045Z,2.98
2019-06-07T14:49:52.207Z,2.40
2019-06-07T14:52:24.858Z,2.33
2019-06-07T14:54:59.267Z,2.42
2019-06-07T14:57:34.220Z,2.00
2019-06-07T15:00:14.087Z,2.40
2019-06-07T15:02:46.717Z,2.20
2019-06-07T15:05:20.830Z,2.45
2019-06-07T15:07:52.183Z,2.72
2019-06-07T15:10:24.401Z,2.47
2019-06-07T15:12:56.818Z,2.55
2019-06-07T15:15:28.895Z,2.50
2019-06-07T15:18:01.537Z,2.65
2019-06-07T15:20:34.087Z,2.40
2019-06-07T15:23:07.582Z,2.33
2019-06-07T15:25:41.141Z,2.50
2019-06-07T15:28:13.740Z,2.40
2019-06-07T15:30:45.231Z,2.60
2019-06-07T15:33:18.622Z,2.62
2019-06-07T15:35:51.241Z,2.80
2019-06-07T15:38:23.939Z,2.72
2019-06-07T15:40:57.827Z,2.92
2019-06-07T15:43:31.058Z,3.02
2019-06-07T15:46:02.395Z,3.05
2019-06-07T15:48:36.073Z,2.80
2019-06-07T15:51:08.197Z,2.67
2019-06-07T15:53:44.453Z,2.77
2019-06-07T15:56:14.627Z,2.75
2019-06-07T15:58:48.186Z,2.90
2019-06-07T16:01:21.143Z,3.30
2019-06-07T16:03:53.872Z,3.30
2019-06-07T16:06:32.160Z,2.85
2019-06-07T16:09:06.889Z,3.00
2019-06-07T17:43:59.963Z,3.22
2019-06-07T17:46:25.735Z,3.50
2019-06-07T17:48:57.268Z,3.10
2019-06-07T17:51:30.300Z,2.72
2019-06-07T17:54:02.149Z,2.90
2019-06-07T17:56:33.687Z,3.45
2019-06-07T17:59:05.636Z,3.50
2019-06-07T18:01:41.465Z,3.00
2019-06-07T18:04:09.908Z,3.45
2019-06-07T18:06:41.643Z,3.25
2019-06-07T18:09:14.153Z,3.08
2019-06-07T18:11:45.851Z,3.67
2019-06-07T18:14:17.317Z,3.30
2019-06-07T18:16:48.645Z,3.30
2019-06-07T18:19:20.332Z,3.60
2019-06-07T18:21:57.367Z,4.03
2019-06-07T18:24:34.804Z,3.22
2019-06-07T18:27:09.271Z,3.85
2019-06-07T18:29:41.819Z,3.50
2019-06-07T18:32:13.740Z,3.25
2019-06-07T18:34:46.701Z,3.80
2019-06-07T18:37:19.293Z,4.22
2019-06-07T18:39:51.673Z,4.20
2019-06-07T18:42:23.531Z,4.87
